Time;durP1;ratioP1;P1;durP2;ratioP2;P2;SDS_P1;SDS_P2;PMS_P1;PMS_P2;Temp;Humidity;BMP_temperature;BMP_pressure;BME280_temperature;BME280_humidity;BME280_pressure;Samples;Min_cycle;Max_cycle;Signal;HPM_P1;HPM_P2
2024/01/09 00:00:13;;;;;;;11.97;10.57;;;;;;;-0.66;100.00;97021.88;5116226;28;20233;-60
2024/01/09 00:02:40;;;;;;;11.97;10.10;;;;;;;-0.68;100.00;97027.16;5116955;28;20260;-61
2024/01/09 00:05:07;;;;;;;10.90;9.80;;;;;;;-0.76;100.00;97031.81;5118579;28;20297;-60
2024/01/09 00:07:34;;;;;;;10.30;8.97;;;;;;;-0.74;100.00;97023.94;5122866;27;20233;-61
2024/01/09 00:10:02;;;;;;;11.30;9.10;;;;;;;-0.68;100.00;97031.50;5122175;28;20226;-62
2024/01/09 00:12:28;;;;;;;9.57;8.67;;;;;;;-0.81;99.65;97028.56;5119659;28;20204;-59
2024/01/09 00:14:55;;;;;;;9.93;8.70;;;;;;;-0.82;99.45;97028.66;5107946;28;20204;-61
2024/01/09 00:17:24;;;;;;;8.93;8.03;;;;;;;-0.84;100.00;97033.03;5105698;28;20205;-60
2024/01/09 00:19:50;;;;;;;9.10;8.13;;;;;;;-0.88;98.70;97031.47;5107115;28;20211;-59
2024/01/09 00:22:17;;;;;;;9.87;8.87;;;;;;;-0.96;99.58;97031.81;5108011;28;20216;-59
2024/01/09 00:24:43;;;;;;;10.43;8.43;;;;;;;-0.96;99.09;97028.38;5107278;27;20272;-60
2024/01/09 00:27:13;;;;;;;9.80;8.47;;;;;;;-0.92;100.00;97035.13;5106750;27;20218;-59
2024/01/09 00:29:39;;;;;;;8.70;7.80;;;;;;;-0.91;98.16;97035.06;5105919;28;20299;-62
2024/01/09 00:32:06;;;;;;;9.03;8.20;;;;;;;-0.90;98.43;97035.91;5106550;28;20552;-58
2024/01/09 00:34:32;;;;;;;8.83;7.93;;;;;;;-0.87;99.93;97027.97;5110155;28;20596;-61
2024/01/09 00:37:00;;;;;;;8.90;7.87;;;;;;;-0.88;97.79;97032.31;5115418;27;20370;-63
2024/01/09 00:39:27;;;;;;;9.77;8.40;;;;;;;-0.91;98.19;97029.00;5110220;28;20207;-61
2024/01/09 00:41:53;;;;;;;8.70;7.80;;;;;;;-0.87;98.31;97038.38;5107838;28;20281;-61
2024/01/09 00:44:21;;;;;;;8.53;7.73;;;;;;;-0.96;97.24;97023.19;5105686;28;20221;-61
2024/01/09 00:46:48;;;;;;;9.03;7.97;;;;;;;-0.98;97.96;97027.59;5106655;27;20196;-61
2024/01/09 00:49:14;;;;;;;8.97;8.07;;;;;;;-0.95;97.11;97041.28;5104809;28;20214;-61
2024/01/09 00:51:41;;;;;;;8.97;8.07;;;;;;;-1.05;97.59;97046.00;5104267;28;20258;-60
2024/01/09 00:54:07;;;;;;;8.73;7.83;;;;;;;-1.04;97.90;97039.94;5101762;28;20525;-61
2024/01/09 00:56:37;;;;;;;8.40;7.60;;;;;;;-0.94;97.57;97040.38;5103098;27;20276;-61
2024/01/09 00:59:03;;;;;;;9.47;8.47;;;;;;;-0.92;97.62;97045.53;5103084;27;20200;-61
2024/01/09 01:01:32;;;;;;;9.33;8.33;;;;;;;-1.04;97.11;97041.66;5101291;27;20299;-61
2024/01/09 01:03:58;;;;;;;8.43;7.50;;;;;;;-0.94;97.53;97044.72;5101127;28;20260;-61
2024/01/09 01:06:25;;;;;;;8.73;7.83;;;;;;;-0.83;97.94;97050.31;5101753;27;20212;-62
2024/01/09 01:08:51;;;;;;;8.53;7.70;;;;;;;-0.94;97.02;97055.09;5101723;27;20315;-61
2024/01/09 01:11:19;;;;;;;9.03;7.90;;;;;;;-0.97;97.52;97050.03;5102168;27;20640;-60
2024/01/09 01:13:46;;;;;;;9.67;8.53;;;;;;;-0.86;96.92;97055.66;5102532;27;20294;-61
2024/01/09 01:16:12;;;;;;;9.33;8.40;;;;;;;-0.79;97.15;97052.72;5100661;27;20307;-61
2024/01/09 01:18:41;;;;;;;9.73;7.83;;;;;;;-0.69;98.07;97054.03;5101684;28;20298;-61
2024/01/09 01:21:07;;;;;;;9.10;8.20;;;;;;;-0.69;97.04;97060.97;5101524;28;20702;-62
2024/01/09 01:23:34;;;;;;;9.33;8.10;;;;;;;-0.67;97.15;97059.13;5101186;27;20752;-59
2024/01/09 01:26:01;;;;;;;9.80;8.80;;;;;;;-0.82;94.59;97057.22;5102337;28;20221;-61
2024/01/09 01:28:28;;;;;;;8.80;7.90;;;;;;;-0.78;95.07;97058.78;5102622;28;20220;-60
2024/01/09 01:30:54;;;;;;;8.80;7.60;;;;;;;-0.80;95.13;97060.56;5103187;27;20196;-61
2024/01/09 01:33:22;;;;;;;8.57;7.67;;;;;;;-0.83;94.67;97055.50;5102515;28;20207;-61
2024/01/09 01:35:50;;;;;;;8.53;7.50;;;;;;;-0.83;95.09;97060.69;5108513;27;20218;-60
2024/01/09 01:38:18;;;;;;;8.73;7.67;;;;;;;-0.95;94.57;97071.56;5109319;28;20478;-62
2024/01/09 01:40:44;;;;;;;8.67;7.77;;;;;;;-0.88;93.89;97067.81;5105249;27;20207;-61
2024/01/09 01:43:11;;;;;;;8.70;7.90;;;;;;;-0.84;94.60;97074.59;5105694;27;20310;-61
2024/01/09 01:45:37;;;;;;;9.23;8.33;;;;;;;-0.91;93.62;97073.16;5102715;28;20575;-61
2024/01/09 01:48:05;;;;;;;9.70;8.70;;;;;;;-1.00;94.66;97079.56;5101900;28;20608;-61
2024/01/09 01:50:32;;;;;;;8.80;7.90;;;;;;;-0.92;95.02;97077.50;5100562;28;20226;-60
2024/01/09 01:53:01;;;;;;;9.63;8.30;;;;;;;-0.81;95.24;97077.03;5103329;28;20212;-61
2024/01/09 01:55:28;;;;;;;9.50;8.53;;;;;;;-0.92;94.33;97076.66;5106370;28;20214;-61
2024/01/09 01:57:56;;;;;;;8.83;7.93;;;;;;;-1.01;94.71;97073.53;5108267;28;20296;-61
2024/01/09 02:00:24;;;;;;;9.50;8.00;;;;;;;-1.05;95.35;97068.53;5106703;28;20207;-61
2024/01/09 02:02:52;;;;;;;9.43;8.43;;;;;;;-1.02;94.80;97069.25;5102529;27;20705;-61
2024/01/09 02:05:19;;;;;;;9.03;7.73;;;;;;;-0.96;95.38;97069.91;5101496;28;20714;-61
2024/01/09 02:07:46;;;;;;;9.17;8.20;;;;;;;-0.91;94.96;97067.97;5101715;28;20257;-61
2024/01/09 02:10:14;;;;;;;9.00;8.10;;;;;;;-0.87;93.34;97069.53;5084916;28;20203;-61
2024/01/09 02:12:42;;;;;;;10.77;8.60;;;;;;;-0.83;94.34;97061.56;5099228;28;20203;-62
2024/01/09 02:15:09;;;;;;;9.30;8.40;;;;;;;-1.09;94.83;97065.22;5098882;28;20196;-62
2024/01/09 02:17:36;;;;;;;9.50;8.50;;;;;;;-1.04;94.25;97075.41;5100472;28;21488;-60
2024/01/09 02:20:04;;;;;;;8.83;7.93;;;;;;;-0.93;97.28;97069.78;5099953;28;20220;-61
2024/01/09 02:22:31;;;;;;;9.23;8.10;;;;;;;-0.93;95.02;97065.44;5101385;28;20289;-62
2024/01/09 02:24:58;;;;;;;9.13;8.13;;;;;;;-0.97;94.51;97068.22;5099149;28;20301;-61
2024/01/09 02:27:31;;;;;;;9.10;8.20;;;;;;;-0.80;94.72;97071.81;5099887;28;20218;-61
2024/01/09 02:30:03;;;;;;;9.47;8.47;;;;;;;-0.71;95.26;97070.59;5100324;27;21333;-62
2024/01/09 02:32:30;;;;;;;8.50;7.47;;;;;;;-0.62;95.99;97067.59;5100573;28;20525;-61
2024/01/09 02:34:57;;;;;;;8.50;7.50;;;;;;;-0.55;97.47;97061.22;5099841;28;20200;-61
2024/01/09 02:37:23;;;;;;;8.90;7.90;;;;;;;-0.62;91.86;97059.81;5101723;28;20204;-62
2024/01/09 02:39:53;;;;;;;9.43;8.50;;;;;;;-0.73;92.25;97062.84;5106645;28;20268;-61
2024/01/09 02:42:20;;;;;;;9.20;8.00;;;;;;;-0.56;95.72;97064.72;5121374;28;20216;-62
2024/01/09 02:44:47;;;;;;;10.43;8.47;;;;;;;-0.52;95.11;97066.28;5124800;28;20258;-61
2024/01/09 02:47:17;;;;;;;9.67;8.60;;;;;;;-0.70;92.62;97061.88;5109192;28;20347;-61
2024/01/09 02:49:43;;;;;;;8.57;7.63;;;;;;;-0.74;93.70;97062.91;5099772;28;20288;-60
2024/01/09 02:52:10;;;;;;;9.93;8.07;;;;;;;-0.62;95.21;97070.19;5101321;28;20220;-60
2024/01/09 02:54:36;;;;;;;10.03;8.37;;;;;;;-0.58;95.74;97061.34;5100212;28;20212;-61
2024/01/09 02:57:03;;;;;;;10.23;8.00;;;;;;;-0.65;96.79;97070.31;5100248;28;20606;-60
2024/01/09 02:59:30;;;;;;;10.07;8.80;;;;;;;-0.66;95.73;97060.84;5099077;28;20208;-60
2024/01/09 03:01:57;;;;;;;9.90;8.90;;;;;;;-0.68;93.08;97068.72;5100149;28;20589;-61
2024/01/09 03:04:25;;;;;;;11.83;9.13;;;;;;;-0.78;91.78;97058.78;5098707;28;20239;-60
2024/01/09 03:06:52;;;;;;;9.50;8.60;;;;;;;-0.89;95.16;97063.56;5099397;28;20210;-61
2024/01/09 03:09:18;;;;;;;9.77;8.77;;;;;;;-0.82;93.97;97067.59;5100856;28;20215;-62
2024/01/09 03:11:45;;;;;;;9.70;8.33;;;;;;;-0.85;95.03;97067.72;5101551;28;20208;-61
2024/01/09 03:14:12;;;;;;;10.03;8.47;;;;;;;-0.89;92.42;97067.00;5099593;28;20339;-61
2024/01/09 03:16:39;;;;;;;8.87;8.00;;;;;;;-0.90;92.83;97059.25;5100130;28;20204;-62
2024/01/09 03:19:05;;;;;;;10.27;8.97;;;;;;;-0.91;93.59;97074.00;5098936;28;20308;-61
2024/01/09 03:21:33;;;;;;;9.63;8.63;;;;;;;-0.92;93.36;97077.50;5099728;28;20287;-62
2024/01/09 03:24:00;;;;;;;10.50;8.87;;;;;;;-0.98;92.94;97067.38;5100256;28;20239;-62
2024/01/09 03:26:26;;;;;;;10.80;9.00;;;;;;;-1.05;92.44;97077.16;5099300;28;20665;-62
2024/01/09 03:28:54;;;;;;;8.93;8.03;;;;;;;-0.93;92.61;97078.41;5098319;28;20203;-61
2024/01/09 03:31:21;;;;;;;9.47;8.43;;;;;;;-1.02;92.75;97073.59;5099697;28;20197;-60
2024/01/09 03:33:48;;;;;;;11.50;9.53;;;;;;;-1.05;93.95;97077.16;5099899;28;20207;-61
2024/01/09 03:36:15;;;;;;;9.83;8.83;;;;;;;-1.15;93.01;97081.03;5099035;28;20247;-61
2024/01/09 03:38:43;;;;;;;10.53;9.20;;;;;;;-1.25;92.72;97084.91;5100471;28;20382;-61
2024/01/09 03:41:11;;;;;;;10.33;8.77;;;;;;;-1.18;94.46;97080.31;5086611;28;20209;-61
2024/01/09 03:43:37;;;;;;;9.63;8.67;;;;;;;-1.20;93.62;97077.78;5103633;28;20573;-60
2024/01/09 03:46:04;;;;;;;11.13;8.67;;;;;;;-1.06;95.17;97083.25;5103123;27;20215;-62
2024/01/09 03:48:34;;;;;;;9.87;8.87;;;;;;;-1.14;95.76;97080.13;5102551;28;20232;-61
2024/01/09 03:51:02;;;;;;;11.00;9.50;;;;;;;-1.15;94.91;97082.78;5102277;28;20215;-61
2024/01/09 03:53:29;;;;;;;10.03;8.73;;;;;;;-1.21;94.54;97083.03;5102358;28;20205;-60
2024/01/09 03:55:57;;;;;;;10.07;8.43;;;;;;;-1.21;95.02;97081.28;5103080;28;20194;-60
2024/01/09 03:58:23;;;;;;;10.00;8.53;;;;;;;-1.20;94.82;97082.97;5102800;27;20638;-61
2024/01/09 04:00:50;;;;;;;11.67;9.40;;;;;;;-1.18;94.76;97078.56;5101543;28;20728;-60
2024/01/09 04:03:17;;;;;;;11.70;9.00;;;;;;;-1.13;94.02;97074.03;5103268;28;20292;-60
2024/01/09 04:05:44;;;;;;;10.37;9.23;;;;;;;-1.21;94.29;97077.84;5102398;28;20238;-61
2024/01/09 04:08:13;;;;;;;9.57;8.43;;;;;;;-1.22;94.32;97077.00;5103664;28;20196;-61
2024/01/09 04:10:43;;;;;;;11.17;9.50;;;;;;;-1.20;94.87;97082.09;5103069;28;20289;-60
2024/01/09 04:13:11;;;;;;;9.90;8.90;;;;;;;-1.26;95.05;97075.44;5104502;27;20285;-60
2024/01/09 04:15:40;;;;;;;10.50;9.40;;;;;;;-1.23;94.93;97075.31;5101656;27;20197;-61
2024/01/09 04:18:07;;;;;;;11.57;9.33;;;;;;;-1.16;95.11;97073.28;5102846;28;20235;-60
2024/01/09 04:20:34;;;;;;;11.07;8.87;;;;;;;-1.19;95.17;97076.88;5103059;27;20200;-60
2024/01/09 04:23:00;;;;;;;10.70;9.40;;;;;;;-1.23;94.72;97077.03;5120312;27;20241;-62
2024/01/09 04:25:27;;;;;;;10.03;8.97;;;;;;;-1.38;95.29;97083.69;5123961;27;20232;-61
2024/01/09 04:27:55;;;;;;;11.03;9.27;;;;;;;-1.37;95.51;97080.19;5117768;28;20231;-61
2024/01/09 04:30:23;;;;;;;11.20;9.87;;;;;;;-1.44;95.97;97073.56;5101977;28;20209;-61
2024/01/09 04:32:51;;;;;;;9.57;8.57;;;;;;;-1.43;96.44;97079.59;5102437;28;20200;-61
2024/01/09 04:35:18;;;;;;;11.70;9.70;;;;;;;-1.43;96.24;97083.03;5101923;28;20207;-61
2024/01/09 04:37:45;;;;;;;10.83;9.37;;;;;;;-1.46;96.93;97080.56;5102940;28;20205;-61
2024/01/09 04:40:12;;;;;;;11.27;9.73;;;;;;;-1.37;96.95;97084.53;5101897;27;20208;-61
2024/01/09 04:42:38;;;;;;;10.87;9.77;;;;;;;-1.41;96.68;97077.75;5107271;27;20275;-60
2024/01/09 04:45:06;;;;;;;13.43;10.00;;;;;;;-1.34;96.87;97090.44;5124177;27;20240;-62
2024/01/09 04:47:36;;;;;;;11.63;9.97;;;;;;;-1.37;96.48;97087.97;5124527;28;20221;-61
2024/01/09 04:50:03;;;;;;;11.17;9.43;;;;;;;-1.40;96.92;97080.31;5115900;28;20201;-61
2024/01/09 04:52:30;;;;;;;12.80;9.97;;;;;;;-1.50;97.70;97078.97;5108420;27;20206;-61
2024/01/09 04:54:58;;;;;;;11.77;9.57;;;;;;;-1.40;98.01;97077.72;5111443;27;20208;-61
2024/01/09 04:57:24;;;;;;;12.33;9.67;;;;;;;-1.33;97.21;97078.31;5127742;28;20239;-62
2024/01/09 04:59:51;;;;;;;11.17;9.87;;;;;;;-1.38;97.29;97073.31;5131393;27;20213;-61
2024/01/09 05:02:17;;;;;;;11.40;10.13;;;;;;;-1.41;97.99;97078.63;5114459;28;21072;-61
2024/01/09 05:04:48;;;;;;;14.93;9.77;;;;;;;-1.26;97.72;97078.03;5120329;28;20252;-60
2024/01/09 05:07:15;;;;;;;13.27;10.90;;;;;;;-1.32;97.53;97072.22;5104514;28;20202;-60
2024/01/09 05:09:41;;;;;;;11.10;9.57;;;;;;;-1.32;97.31;97075.69;5101727;27;20231;-61
2024/01/09 05:12:08;;;;;;;12.17;10.23;;;;;;;-1.17;100.00;97080.22;5101833;27;20222;-61
2024/01/09 05:14:35;;;;;;;12.00;10.17;;;;;;;-1.17;99.23;97071.63;5101299;28;20199;-59
2024/01/09 05:17:02;;;;;;;11.00;9.90;;;;;;;-1.21;97.67;97073.50;5100392;28;20283;-59
2024/01/09 05:19:29;;;;;;;12.27;10.70;;;;;;;-1.23;97.06;97071.84;5100615;27;20202;-60
2024/01/09 05:21:56;;;;;;;12.83;10.37;;;;;;;-1.17;97.75;97071.63;5099758;28;20232;-59
2024/01/09 05:24:23;;;;;;;11.43;9.97;;;;;;;-1.25;97.41;97071.94;5101789;27;20550;-60
2024/01/09 05:26:50;;;;;;;11.83;10.40;;;;;;;-1.27;98.58;97076.31;5100772;28;20217;-60
2024/01/09 05:29:17;;;;;;;11.67;9.90;;;;;;;-1.34;98.68;97071.44;5102553;27;20211;-61
2024/01/09 05:31:44;;;;;;;12.20;10.83;;;;;;;-1.33;98.59;97081.75;5100510;28;20553;-60
2024/01/09 05:34:11;;;;;;;11.73;10.53;;;;;;;-1.28;98.48;97082.44;5102842;28;20637;-61
2024/01/09 05:36:37;;;;;;;12.43;10.50;;;;;;;-1.32;98.91;97080.88;5100953;28;20194;-61
2024/01/09 05:39:07;;;;;;;12.10;10.27;;;;;;;-1.35;99.03;97075.81;5101426;28;20199;-61
2024/01/09 05:41:35;;;;;;;14.70;10.43;;;;;;;-1.35;99.48;97077.56;5102723;28;20297;-61
2024/01/09 05:44:02;;;;;;;20.50;11.97;;;;;;;-1.34;100.00;97080.06;5100579;28;20204;-59
2024/01/09 05:46:28;;;;;;;13.33;11.07;;;;;;;-1.33;99.53;97086.09;5100847;28;20217;-61
2024/01/09 05:48:55;;;;;;;12.70;11.33;;;;;;;-1.35;98.99;97078.41;5099816;28;20640;-61
2024/01/09 05:51:22;;;;;;;12.37;10.43;;;;;;;-1.27;99.49;97081.50;5097796;28;20224;-62
2024/01/09 05:53:48;;;;;;;11.87;10.53;;;;;;;-1.29;98.63;97093.72;5099740;28;20226;-62
2024/01/09 05:56:16;;;;;;;12.03;10.67;;;;;;;-1.32;99.10;97093.84;5099838;28;20191;-60
2024/01/09 05:58:44;;;;;;;13.43;10.73;;;;;;;-1.31;99.58;97085.13;5100924;27;20208;-61
2024/01/09 06:01:12;;;;;;;14.77;11.20;;;;;;;-1.36;98.09;97101.78;5098888;28;20535;-60
2024/01/09 06:03:38;;;;;;;16.17;11.83;;;;;;;-1.35;98.62;97088.78;5101806;28;20396;-61
2024/01/09 06:06:05;;;;;;;13.60;11.30;;;;;;;-1.33;97.88;97096.47;5101300;28;20516;-61
2024/01/09 06:08:32;;;;;;;14.37;11.30;;;;;;;-1.51;97.78;97087.66;5100081;28;20207;-63
2024/01/09 06:10:59;;;;;;;13.80;11.63;;;;;;;-1.49;98.08;97091.06;5100653;28;20623;-61
2024/01/09 06:13:29;;;;;;;14.57;12.37;;;;;;;-1.44;97.90;97094.31;5099817;28;20646;-62
2024/01/09 06:15:56;;;;;;;12.03;10.77;;;;;;;-1.45;99.40;97096.97;5100139;28;20691;-60
2024/01/09 06:18:23;;;;;;;15.67;12.60;;;;;;;-1.54;98.30;97100.75;5098990;28;20624;-61
2024/01/09 06:20:49;;;;;;;15.27;11.73;;;;;;;-1.60;99.08;97098.41;5100721;28;20211;-60
2024/01/09 06:23:16;;;;;;;14.87;12.77;;;;;;;-1.60;100.00;97103.59;5100565;28;20529;-60
2024/01/09 06:25:42;;;;;;;16.87;13.03;;;;;;;-1.60;100.00;97101.00;5101130;28;20318;-60
2024/01/09 06:28:09;;;;;;;16.37;13.10;;;;;;;-1.59;100.00;97094.88;5084072;28;20277;-61
2024/01/09 06:30:38;;;;;;;14.63;11.53;;;;;;;-1.59;100.00;97092.28;5100648;28;20212;-60
2024/01/09 06:33:05;;;;;;;16.33;12.57;;;;;;;-1.75;100.00;97094.63;5100845;28;20223;-60
2024/01/09 06:35:32;;;;;;;14.97;13.20;;;;;;;-1.75;100.00;97098.97;5099073;28;20295;-60
2024/01/09 06:37:59;;;;;;;18.23;13.23;;;;;;;-1.70;100.00;97099.66;5099657;28;20192;-60
2024/01/09 06:40:28;;;;;;;15.53;12.30;;;;;;;-1.70;99.74;97103.06;5099435;28;20291;-60
2024/01/09 06:42:55;;;;;;;16.07;13.10;;;;;;;-1.60;100.00;97098.41;5100833;28;20243;-61
2024/01/09 06:45:22;;;;;;;15.43;12.07;;;;;;;-1.61;100.00;97114.84;5100619;28;20749;-61
2024/01/09 06:47:50;;;;;;;15.97;12.33;;;;;;;-1.58;100.00;97106.94;5099035;28;20212;-61
2024/01/09 06:50:16;;;;;;;15.07;12.60;;;;;;;-1.61;100.00;97104.47;5100877;28;20209;-61
2024/01/09 06:52:45;;;;;;;17.57;12.83;;;;;;;-1.56;100.00;97107.75;5101094;28;20277;-61
2024/01/09 06:55:13;;;;;;;16.90;12.73;;;;;;;-1.58;100.00;97114.72;5105075;28;20196;-63
2024/01/09 06:57:40;;;;;;;14.37;12.43;;;;;;;-1.61;100.00;97112.25;5117553;28;20269;-62
2024/01/09 07:00:07;;;;;;;15.07;12.53;;;;;;;-1.55;100.00;97106.84;5120947;28;21068;-63
2024/01/09 07:02:34;;;;;;;16.03;12.80;;;;;;;-1.57;100.00;97108.66;5110188;28;20208;-61
2024/01/09 07:05:03;;;;;;;18.77;13.13;;;;;;;-1.65;100.00;97105.50;5107361;28;20245;-61
2024/01/09 07:07:30;;;;;;;17.90;13.10;;;;;;;-1.66;100.00;97119.34;5099599;28;20583;-62
2024/01/09 07:09:57;;;;;;;17.17;12.77;;;;;;;-1.72;100.00;97123.03;5099952;28;20197;-60
2024/01/09 07:12:23;;;;;;;15.93;13.10;;;;;;;-1.79;100.00;97120.72;5101219;28;20261;-61
2024/01/09 07:14:50;;;;;;;16.37;12.63;;;;;;;-1.63;100.00;97116.66;5110212;28;20626;-60
2024/01/09 07:17:18;;;;;;;16.40;13.27;;;;;;;-1.67;100.00;97122.88;5104028;28;20207;-60
2024/01/09 07:19:45;;;;;;;18.53;13.10;;;;;;;-1.64;100.00;97122.75;5103785;28;20599;-62
2024/01/09 07:22:14;;;;;;;16.23;13.90;;;;;;;-1.78;100.00;97132.78;5104149;28;20213;-61
2024/01/09 07:24:40;;;;;;;17.63;13.47;;;;;;;-1.60;100.00;97124.34;5104043;28;20214;-62
2024/01/09 07:27:07;;;;;;;20.10;14.67;;;;;;;-1.70;100.00;97133.34;5103679;28;20290;-59
2024/01/09 07:29:33;;;;;;;17.93;13.90;;;;;;;-1.80;100.00;97135.41;5103613;28;20216;-60
2024/01/09 07:32:01;;;;;;;16.67;13.13;;;;;;;-1.67;100.00;97139.28;5103068;28;20203;-62
2024/01/09 07:34:29;;;;;;;18.43;14.23;;;;;;;-1.67;100.00;97128.06;5103527;28;20204;-60
2024/01/09 07:36:58;;;;;;;21.80;14.57;;;;;;;-1.58;100.00;97132.88;5102877;27;20207;-62
2024/01/09 07:39:26;;;;;;;17.27;13.43;;;;;;;-1.53;100.00;97129.22;5101773;28;20294;-61
2024/01/09 07:41:54;;;;;;;18.53;13.00;;;;;;;-1.47;100.00;97130.72;5103694;28;20194;-61
2024/01/09 07:44:21;;;;;;;19.97;14.53;;;;;;;-1.54;100.00;97134.47;5103065;28;20290;-62
2024/01/09 07:46:48;;;;;;;18.63;13.97;;;;;;;-1.69;100.00;97137.63;5102826;28;20546;-62
2024/01/09 07:49:15;;;;;;;18.10;14.03;;;;;;;-1.68;100.00;97142.75;5103064;28;20578;-61
2024/01/09 07:51:42;;;;;;;17.63;14.13;;;;;;;-1.75;100.00;97141.31;5103130;28;20215;-60
2024/01/09 07:54:09;;;;;;;19.10;14.30;;;;;;;-1.77;100.00;97147.44;5102817;28;20254;-61
2024/01/09 07:56:37;;;;;;;20.70;14.37;;;;;;;-1.83;100.00;97148.50;5102322;28;20201;-61
2024/01/09 07:59:04;;;;;;;18.33;14.10;;;;;;;-1.57;100.00;97147.56;5102914;28;20200;-61
2024/01/09 08:01:31;;;;;;;17.27;14.17;;;;;;;-1.64;100.00;97149.53;5101660;28;20196;-61
2024/01/09 08:03:57;;;;;;;19.17;14.77;;;;;;;-1.68;100.00;97152.28;5101877;28;20237;-60
2024/01/09 08:06:24;;;;;;;19.67;14.13;;;;;;;-1.56;100.00;97152.66;5102129;28;20224;-62
2024/01/09 08:08:51;;;;;;;18.70;14.23;;;;;;;-1.51;100.00;97155.09;5103045;28;20207;-60
2024/01/09 08:11:17;;;;;;;20.27;15.03;;;;;;;-1.60;100.00;97155.44;5104617;28;20210;-60
2024/01/09 08:13:47;;;;;;;20.17;14.77;;;;;;;-1.51;100.00;97152.50;5103746;28;20198;-62
2024/01/09 08:16:13;;;;;;;19.57;15.13;;;;;;;-1.46;100.00;97148.00;5103557;28;20192;-60
2024/01/09 08:18:40;;;;;;;17.87;14.17;;;;;;;-1.42;100.00;97146.97;5102025;28;20238;-60
2024/01/09 08:21:07;;;;;;;22.37;16.03;;;;;;;-1.41;100.00;97156.44;5102164;28;20196;-61
2024/01/09 08:23:35;;;;;;;19.87;15.90;;;;;;;-1.43;100.00;97158.25;5102530;28;20201;-60
2024/01/09 08:26:02;;;;;;;18.40;14.60;;;;;;;-1.50;100.00;97151.59;5108605;28;20219;-62
2024/01/09 08:28:28;;;;;;;19.27;15.63;;;;;;;-1.48;100.00;97154.97;5109476;28;20334;-61
2024/01/09 08:30:56;;;;;;;20.63;15.37;;;;;;;-1.48;100.00;97154.97;5087273;28;20708;-62
2024/01/09 08:33:23;;;;;;;22.47;15.53;;;;;;;-1.40;100.00;97160.72;5103249;28;20198;-61
2024/01/09 08:35:50;;;;;;;19.73;15.63;;;;;;;-1.44;100.00;97161.75;5102763;28;20210;-62
2024/01/09 08:38:19;;;;;;;19.73;15.00;;;;;;;-1.47;100.00;97167.03;5102007;28;20208;-60
2024/01/09 08:40:49;;;;;;;19.93;15.00;;;;;;;-1.54;100.00;97157.81;5100985;28;20204;-60
2024/01/09 08:43:16;;;;;;;20.20;15.50;;;;;;;-1.59;100.00;97164.91;5102921;28;20213;-62
2024/01/09 08:45:43;;;;;;;20.40;15.70;;;;;;;-1.62;100.00;97168.47;5102015;28;20225;-60
2024/01/09 08:48:11;;;;;;;22.47;15.40;;;;;;;-1.72;100.00;97167.09;5100339;28;20286;-60
2024/01/09 08:50:38;;;;;;;21.93;15.73;;;;;;;-1.79;100.00;97162.19;5101778;28;20200;-61
2024/01/09 08:53:05;;;;;;;19.67;15.53;;;;;;;-1.78;100.00;97169.94;5101016;28;20204;-60
2024/01/09 08:55:31;;;;;;;23.00;15.10;;;;;;;-1.68;100.00;97173.03;5101802;28;20208;-61
2024/01/09 08:57:58;;;;;;;19.53;14.93;;;;;;;-1.77;100.00;97176.78;5100659;28;20292;-62
2024/01/09 09:00:24;;;;;;;19.47;15.43;;;;;;;-1.61;100.00;97171.91;5101973;28;20527;-60
2024/01/09 09:02:52;;;;;;;18.73;14.50;;;;;;;-1.66;100.00;97168.63;5105007;28;20206;-62
2024/01/09 09:05:20;;;;;;;21.73;15.00;;;;;;;-1.65;100.00;97172.91;5113897;28;20270;-61
2024/01/09 09:07:46;;;;;;;21.33;15.33;;;;;;;-1.58;100.00;97170.03;5114325;28;20531;-61
2024/01/09 09:10:13;;;;;;;22.50;15.17;;;;;;;-1.61;100.00;97169.31;5112909;28;20196;-61
2024/01/09 09:12:40;;;;;;;21.70;15.97;;;;;;;-1.46;100.00;97158.38;5114178;28;20295;-61
2024/01/09 09:15:07;;;;;;;22.23;15.97;;;;;;;-1.53;100.00;97162.94;5092737;28;20299;-62
2024/01/09 09:17:34;;;;;;;22.80;15.60;;;;;;;-1.57;100.00;97163.09;5113729;27;20201;-61
2024/01/09 09:20:01;;;;;;;24.80;15.60;;;;;;;-1.57;100.00;97161.38;5114737;28;20235;-62
2024/01/09 09:22:33;;;;;;;28.23;16.87;;;;;;;-1.52;100.00;97166.34;5112841;28;20207;-62
2024/01/09 09:25:00;;;;;;;22.23;16.07;;;;;;;-1.54;100.00;97169.03;5111321;28;20210;-61
2024/01/09 09:27:26;;;;;;;18.27;15.17;;;;;;;-1.41;100.00;97169.41;5111712;28;20311;-62
2024/01/09 09:29:53;;;;;;;21.20;15.60;;;;;;;-1.34;100.00;97172.59;5094865;28;20220;-61
2024/01/09 09:32:20;;;;;;;22.33;16.27;;;;;;;-1.36;100.00;97177.00;5115531;28;20213;-61
2024/01/09 09:34:47;;;;;;;22.07;16.10;;;;;;;-1.42;100.00;97172.06;5116809;28;20208;-62
2024/01/09 09:37:14;;;;;;;19.93;15.60;;;;;;;-1.40;100.00;97176.28;5115563;28;20226;-62
2024/01/09 09:39:42;;;;;;;23.57;17.10;;;;;;;-1.65;100.00;97175.50;5113021;28;20502;-60
2024/01/09 09:42:10;;;;;;;25.03;16.10;;;;;;;-1.55;100.00;97179.44;5108032;28;20282;-60
2024/01/09 09:44:37;;;;;;;21.07;16.10;;;;;;;-1.49;100.00;97179.25;5100785;28;20222;-60
2024/01/09 09:47:05;;;;;;;22.50;16.40;;;;;;;-1.56;100.00;97178.59;5113601;28;20316;-60
2024/01/09 09:49:32;;;;;;;23.33;16.23;;;;;;;-1.45;100.00;97175.59;5140011;28;20180;-62
2024/01/09 09:51:59;;;;;;;22.97;16.37;;;;;;;-1.34;100.00;97180.38;5127756;27;20209;-63
2024/01/09 09:54:26;;;;;;;22.73;16.37;;;;;;;-1.41;100.00;97173.72;5124718;28;20249;-62
2024/01/09 09:56:54;;;;;;;24.87;17.57;;;;;;;-1.48;100.00;97178.31;5105994;27;20232;-62
2024/01/09 09:59:20;;;;;;;25.00;16.10;;;;;;;-1.38;100.00;97171.88;5102845;28;20213;-61
2024/01/09 10:01:47;;;;;;;22.83;16.30;;;;;;;-1.42;100.00;97174.66;5100794;28;20606;-61
2024/01/09 10:04:26;;;;;;;22.53;16.00;;;;;;;-1.46;100.00;97167.91;5104427;27;20242;-60
2024/01/09 10:06:52;;;;;;;21.50;16.03;;;;;;;-1.32;100.00;97171.66;5119927;27;20211;-60
2024/01/09 10:09:20;;;;;;;23.57;16.77;;;;;;;-1.26;100.00;97166.22;5116041;27;20195;-59
2024/01/09 10:11:49;;;;;;;19.37;15.30;;;;;;;-1.18;100.00;97169.38;5119166;27;21392;-60
2024/01/09 10:14:17;;;;;;;24.50;16.60;;;;;;;-1.22;100.00;97170.41;5118182;27;20832;-63
2024/01/09 10:16:50;;;;;;;22.83;16.47;;;;;;;-1.40;100.00;97163.31;5115354;27;20208;-62
2024/01/09 10:19:18;;;;;;;22.07;16.53;;;;;;;-1.33;100.00;97161.34;5120078;27;20668;-60
2024/01/09 10:21:45;;;;;;;25.27;16.57;;;;;;;-1.49;100.00;97168.00;5117148;27;20208;-60
2024/01/09 10:24:12;;;;;;;23.27;17.67;;;;;;;-1.46;100.00;97166.16;5117976;27;20193;-61
2024/01/09 10:26:38;;;;;;;23.47;16.57;;;;;;;-1.49;100.00;97166.28;5117785;27;20222;-61
2024/01/09 10:29:09;;;;;;;24.57;16.87;;;;;;;-1.36;100.00;97166.63;5108519;27;20332;-62
2024/01/09 10:31:39;;;;;;;25.37;17.53;;;;;;;-1.39;100.00;97164.16;5112600;27;20188;-61
2024/01/09 10:34:06;;;;;;;24.77;18.50;;;;;;;-1.36;100.00;97164.91;5109010;27;20200;-60
2024/01/09 10:36:33;;;;;;;24.60;17.43;;;;;;;-1.40;100.00;97162.47;5117874;27;20193;-62
2024/01/09 10:39:04;;;;;;;23.33;16.60;;;;;;;-1.31;100.00;97162.94;5117372;27;20204;-60
2024/01/09 10:41:31;;;;;;;22.13;16.63;;;;;;;-1.29;100.00;97168.94;5118110;27;20261;-60
2024/01/09 10:44:02;;;;;;;26.17;16.97;;;;;;;-1.19;100.00;97166.84;5081686;28;20622;-60
2024/01/09 10:46:31;;;;;;;25.57;17.27;;;;;;;-1.16;100.00;97164.97;5111986;27;20262;-62
2024/01/09 10:49:00;;;;;;;25.00;16.80;;;;;;;-1.20;100.00;97166.00;5119973;27;20229;-61
2024/01/09 10:51:27;;;;;;;24.57;16.57;;;;;;;-1.25;100.00;97169.69;5119344;27;20268;-62
2024/01/09 10:53:54;;;;;;;23.53;17.30;;;;;;;-1.21;100.00;97164.31;5120029;27;20195;-60
2024/01/09 10:56:22;;;;;;;24.63;17.17;;;;;;;-1.28;100.00;97168.06;5118434;27;20214;-60
2024/01/09 10:58:49;;;;;;;23.53;17.10;;;;;;;-1.44;100.00;97166.94;5112490;28;20204;-62
2024/01/09 11:01:16;;;;;;;24.33;17.23;;;;;;;-1.49;100.00;97158.50;5120316;28;20203;-61
2024/01/09 11:03:43;;;;;;;23.83;16.87;;;;;;;-1.46;100.00;97163.56;5116913;28;20654;-60
2024/01/09 11:06:16;;;;;;;24.33;16.43;;;;;;;-1.40;100.00;97165.91;5080855;28;20218;-61
2024/01/09 11:08:44;;;;;;;23.50;17.00;;;;;;;-1.42;100.00;97159.94;5081362;28;20629;-60
2024/01/09 11:11:13;;;;;;;24.27;16.83;;;;;;;-1.38;100.00;97171.88;5081165;28;20208;-61
2024/01/09 11:13:43;;;;;;;25.30;17.10;;;;;;;-1.47;100.00;97156.66;5081770;28;20299;-60
2024/01/09 11:16:11;;;;;;;27.07;17.20;;;;;;;-1.39;100.00;97157.22;5081081;28;20202;-60
2024/01/09 11:18:38;;;;;;;21.63;16.57;;;;;;;-1.40;100.00;97162.47;5081731;28;20546;-60